createdAt,value
2023-01-04T00:11:53.103Z,0
2023-01-04T00:26:49.636Z,0
2023-01-04T00:42:01.808Z,0
2023-01-04T00:56:42.280Z,0
2023-01-04T01:11:38.563Z,0
2023-01-04T01:41:30.810Z,0
2023-01-04T01:56:27.313Z,0.01
2023-01-04T02:11:23.965Z,0
2023-01-04T02:26:20.269Z,0
2023-01-04T02:41:16.618Z,0
2023-01-04T02:56:12.840Z,0
2023-01-04T03:11:09.155Z,0
2023-01-04T03:26:05.739Z,0
2023-01-04T03:41:02.419Z,0
2023-01-04T03:55:58.237Z,0
2023-01-04T04:10:54.515Z,0
2023-01-04T04:25:51.016Z,0
2023-01-04T04:40:46.259Z,0
2023-01-04T04:55:42.863Z,0
2023-01-04T05:10:38.576Z,0
2023-01-04T05:25:34.804Z,0
2023-01-04T05:40:31.314Z,0
2023-01-04T06:25:19.918Z,0
2023-01-04T06:40:15.674Z,0.01
2023-01-04T06:55:12.248Z,0
2023-01-04T07:10:09.881Z,0.01
2023-01-04T07:25:04.569Z,0.03
2023-01-04T07:54:56.766Z,0.03
2023-01-04T08:09:53.235Z,0.05
2023-01-04T08:24:49.670Z,0.05
2023-01-04T08:39:49.134Z,0.05
2023-01-04T08:54:42.675Z,0.05
2023-01-04T09:09:39.308Z,0.06
2023-01-04T09:24:35.323Z,0.08
2023-01-04T09:39:31.767Z,0.08
2023-01-04T10:09:24.719Z,0.08
2023-01-04T10:24:21.433Z,0.07
2023-01-04T10:39:17.442Z,0.12
2023-01-04T10:54:14.021Z,0.09
2023-01-04T11:09:13.207Z,0.07
2023-01-04T11:24:30.761Z,0.08
2023-01-04T11:39:03.027Z,0.11
2023-01-04T11:53:58.580Z,0.1
2023-01-04T12:08:55.126Z,0.09
2023-01-04T12:23:51.175Z,0.1
2023-01-04T12:38:47.776Z,0.08
2023-01-04T13:08:40.367Z,0.1
2023-01-04T13:23:36.652Z,0.1
2023-01-04T13:38:32.646Z,0.1
2023-01-04T13:53:28.974Z,0.08
2023-01-04T14:08:25.140Z,0.06
2023-01-04T14:23:21.879Z,0.05
2023-01-04T14:38:18.142Z,0.03
2023-01-04T14:53:14.247Z,0.04
2023-01-04T15:08:10.815Z,0.03
2023-01-04T15:23:07.124Z,0.02
2023-01-04T15:38:06.373Z,0.01
2023-01-04T15:52:59.867Z,0.02
2023-01-04T16:07:56.175Z,0
2023-01-04T16:22:52.138Z,0
2023-01-04T16:37:48.601Z,0
2023-01-04T16:52:44.789Z,0.02
2023-01-04T17:07:41.068Z,0
2023-01-04T17:37:33.840Z,0.01
2023-01-04T17:52:31.469Z,0.01
2023-01-04T18:07:26.171Z,0
2023-01-04T18:22:23.035Z,0
2023-01-04T18:37:19.774Z,0.01
2023-01-04T18:52:15.704Z,0.01
2023-01-04T19:07:11.622Z,0
2023-01-04T19:22:07.853Z,0
2023-01-04T19:37:04.290Z,0
2023-01-04T19:52:00.420Z,0
2023-01-04T20:06:56.804Z,0
2023-01-04T20:21:53.042Z,0.01
2023-01-04T20:36:49.190Z,0
2023-01-04T20:51:45.309Z,0
2023-01-04T21:06:41.937Z,0.02
2023-01-04T21:21:38.005Z,0
2023-01-04T21:36:34.135Z,0
2023-01-04T21:51:30.795Z,0
2023-01-04T22:06:27.000Z,0
2023-01-04T22:21:23.458Z,0
2023-01-04T22:36:23.138Z,0
2023-01-04T22:51:15.911Z,0
2023-01-04T23:06:12.130Z,0
2023-01-04T23:21:08.530Z,0
2023-01-04T23:36:04.796Z,0
2023-01-04T23:51:00.963Z,0.01
